Time;durP1;ratioP1;P1;durP2;ratioP2;P2;SDS_P1;SDS_P2;PMS_P1;PMS_P2;Temp;Humidity;BMP_temperature;BMP_pressure;BME280_temperature;BME280_humidity;BME280_pressure;Samples;Min_cycle;Max_cycle;Signal;HPM_P1;HPM_P2
2023/06/11 00:00:26;;;;;;;22.77;15.98;;;17.60;99.90;;;;;;5051182;28;20036;-80
2023/06/11 00:02:54;;;;;;;19.27;14.88;;;17.60;99.90;;;;;;5049039;28;20045;-81
2023/06/11 00:05:21;;;;;;;18.85;14.68;;;17.50;99.90;;;;;;5038916;28;20021;-81
2023/06/11 00:07:48;;;;;;;20.80;14.35;;;17.50;99.90;;;;;;5047080;28;20040;-81
2023/06/11 00:10:15;;;;;;;17.52;13.93;;;17.50;99.90;;;;;;5045889;28;20032;-81
2023/06/11 00:12:40;;;;;;;21.80;15.75;;;17.50;99.90;;;;;;5012912;28;20060;-81
2023/06/11 00:15:07;;;;;;;19.73;15.23;;;17.50;99.90;;;;;;5045599;28;20053;-81
2023/06/11 00:17:33;;;;;;;19.10;15.75;;;17.50;99.90;;;;;;5054210;28;20086;-81
2023/06/11 00:20:03;;;;;;;21.10;17.25;;;17.40;99.90;;;;;;5018648;28;20140;-81
2023/06/11 00:22:31;;;;;;;19.47;15.97;;;17.40;99.90;;;;;;5018329;28;20120;-81
2023/06/11 00:24:57;;;;;;;21.38;16.45;;;17.50;99.90;;;;;;5013210;28;20266;-81
2023/06/11 00:27:23;;;;;;;22.83;17.30;;;17.50;99.90;;;;;;5021201;28;20056;-81
2023/06/11 00:29:48;;;;;;;18.42;16.42;;;17.40;99.90;;;;;;5050576;28;20021;-81
2023/06/11 00:32:14;;;;;;;18.17;15.07;;;17.40;99.90;;;;;;5032086;28;20090;-81
2023/06/11 00:34:40;;;;;;;16.27;14.30;;;17.40;99.90;;;;;;5029885;28;20440;-81
2023/06/11 00:37:05;;;;;;;17.52;13.25;;;17.30;99.90;;;;;;5041415;28;20025;-82
2023/06/11 00:39:31;;;;;;;16.63;14.13;;;17.20;99.90;;;;;;5050805;28;20029;-81
2023/06/11 00:41:58;;;;;;;18.63;16.00;;;17.20;99.90;;;;;;5039885;28;20033;-81
2023/06/11 00:44:23;;;;;;;21.45;16.48;;;17.20;99.90;;;;;;5009783;28;20064;-82
2023/06/11 00:46:51;;;;;;;21.65;15.93;;;17.10;99.90;;;;;;5028972;28;20196;-82
2023/06/11 00:49:17;;;;;;;19.48;15.88;;;17.00;99.90;;;;;;5029733;28;20404;-82
2023/06/11 00:51:45;;;;;;;19.77;15.77;;;17.00;99.90;;;;;;5021071;28;20040;-82
2023/06/11 00:54:13;;;;;;;22.15;15.95;;;17.10;99.90;;;;;;5024590;28;20025;-82
2023/06/11 00:56:45;;;;;;;19.58;16.00;;;17.10;99.90;;;;;;5033571;28;20028;-82
2023/06/11 00:59:17;;;;;;;18.08;16.17;;;17.10;99.90;;;;;;5063429;28;20118;-82
2023/06/11 01:01:56;;;;;;;17.65;15.43;;;17.10;99.90;;;;;;5047044;28;20041;-82
2023/06/11 01:04:23;;;;;;;21.77;17.25;;;17.00;99.90;;;;;;5029260;28;20040;-81
2023/06/11 01:06:57;;;;;;;16.90;15.07;;;17.00;99.90;;;;;;5028772;28;20032;-82
2023/06/11 01:09:24;;;;;;;18.38;16.42;;;17.00;99.90;;;;;;5029869;28;20482;-81
2023/06/11 01:11:53;;;;;;;17.45;15.65;;;17.00;99.90;;;;;;5047892;28;20108;-82
2023/06/11 01:14:19;;;;;;;26.15;17.15;;;16.90;99.90;;;;;;5039298;28;20353;-80
2023/06/11 01:17:02;;;;;;;22.52;18.15;;;16.90;99.90;;;;;;5035600;28;20029;-81
2023/06/11 01:20:09;;;;;;;21.50;17.45;;;16.80;99.90;;;;;;5028334;28;20045;-81
2023/06/11 01:23:04;;;;;;;23.70;16.77;;;16.80;99.90;;;;;;5047180;28;20029;-81
2023/06/11 01:25:44;;;;;;;22.13;17.83;;;16.70;99.90;;;;;;5026326;28;20087;-82
2023/06/11 01:28:16;;;;;;;20.35;18.02;;;16.70;99.90;;;;;;5014205;28;20048;-81
2023/06/11 01:30:47;;;;;;;20.25;18.08;;;16.60;99.90;;;;;;5032069;28;20060;-82
2023/06/11 01:33:13;;;;;;;23.67;18.63;;;16.60;99.90;;;;;;5011042;28;20392;-81
2023/06/11 01:35:40;;;;;;;24.98;19.23;;;16.50;99.90;;;;;;5033090;28;20052;-82
2023/06/11 01:38:08;;;;;;;21.73;18.05;;;16.50;99.90;;;;;;5031738;28;20077;-80
2023/06/11 01:40:34;;;;;;;19.55;16.73;;;16.50;99.90;;;;;;5024406;28;20108;-81
2023/06/11 01:43:00;;;;;;;18.20;16.15;;;16.50;99.90;;;;;;5029673;28;20100;-81
2023/06/11 01:45:27;;;;;;;19.02;15.63;;;16.40;99.90;;;;;;5054606;28;20503;-82
2023/06/11 01:47:53;;;;;;;22.05;17.20;;;16.40;99.90;;;;;;5027309;28;20066;-81
2023/06/11 01:50:19;;;;;;;28.52;19.27;;;16.40;99.90;;;;;;5025103;28;20354;-81
2023/06/11 01:52:45;;;;;;;22.30;18.80;;;16.40;99.90;;;;;;5026972;28;20118;-82
2023/06/11 01:55:11;;;;;;;22.60;19.40;;;16.30;99.90;;;;;;5027713;28;20029;-82
2023/06/11 01:57:37;;;;;;;24.48;20.27;;;16.30;99.90;;;;;;5044059;28;20044;-82
2023/06/11 02:00:10;;;;;;;24.27;19.13;;;16.30;99.90;;;;;;5046752;28;20025;-81
2023/06/11 02:02:39;;;;;;;22.75;19.98;;;16.30;99.90;;;;;;5043953;28;20059;-81
2023/06/11 02:05:05;;;;;;;24.00;19.33;;;16.20;99.90;;;;;;5011718;28;20422;-81
2023/06/11 02:07:31;;;;;;;21.50;18.38;;;16.20;99.90;;;;;;5007600;28;20064;-81
2023/06/11 02:09:56;;;;;;;23.95;19.88;;;16.20;99.90;;;;;;5011199;28;20021;-82
2023/06/11 02:12:22;;;;;;;25.13;20.40;;;16.20;99.90;;;;;;5011967;28;20040;-82
2023/06/11 02:14:47;;;;;;;22.15;19.70;;;16.10;99.90;;;;;;5043638;28;20024;-81
2023/06/11 02:17:13;;;;;;;23.88;20.40;;;16.10;99.90;;;;;;5033906;28;20056;-81
2023/06/11 02:19:39;;;;;;;23.27;19.63;;;16.10;99.90;;;;;;5045734;28;20025;-81
2023/06/11 02:22:04;;;;;;;23.95;19.33;;;16.10;99.90;;;;;;5026301;28;20090;-81
2023/06/11 02:24:30;;;;;;;24.40;20.77;;;16.10;99.90;;;;;;5025294;28;20029;-82
2023/06/11 02:26:56;;;;;;;23.65;19.35;;;16.10;99.90;;;;;;5026996;28;20051;-82
2023/06/11 02:29:21;;;;;;;20.52;18.23;;;16.10;99.90;;;;;;5019424;28;20033;-82
2023/06/11 02:31:47;;;;;;;23.17;19.50;;;16.00;99.90;;;;;;5008514;28;20436;-81
2023/06/11 02:34:12;;;;;;;22.42;18.90;;;16.00;99.90;;;;;;5058209;28;20033;-82
2023/06/11 02:36:38;;;;;;;23.25;19.13;;;16.00;99.90;;;;;;5026946;28;20637;-81
2023/06/11 02:39:03;;;;;;;24.58;18.92;;;16.00;99.90;;;;;;5048750;28;20695;-81
2023/06/11 02:41:29;;;;;;;22.83;18.30;;;16.00;99.90;;;;;;5045443;28;20119;-82
2023/06/11 02:43:55;;;;;;;24.13;20.05;;;15.90;99.90;;;;;;5044051;28;20039;-81
2023/06/11 02:46:21;;;;;;;24.52;20.10;;;16.00;99.90;;;;;;5044977;28;20036;-81
2023/06/11 02:48:47;;;;;;;25.15;21.90;;;15.90;99.90;;;;;;5027468;28;20029;-81
2023/06/11 02:51:13;;;;;;;26.23;18.98;;;15.90;99.90;;;;;;5027841;28;20444;-82
2023/06/11 02:53:38;;;;;;;23.35;18.80;;;15.90;99.90;;;;;;5026141;28;20037;-81
2023/06/11 02:56:04;;;;;;;23.85;19.38;;;16.00;99.90;;;;;;5039143;28;20124;-82
2023/06/11 02:58:30;;;;;;;24.33;20.88;;;15.90;99.90;;;;;;5027305;28;20052;-82
2023/06/11 03:00:55;;;;;;;25.55;19.88;;;15.90;99.90;;;;;;5043198;28;20120;-83
2023/06/11 03:03:21;;;;;;;28.13;20.38;;;15.90;99.90;;;;;;5032034;28;20091;-81
2023/06/11 03:05:47;;;;;;;23.08;19.85;;;16.00;99.90;;;;;;5025671;28;20033;-82
2023/06/11 03:08:12;;;;;;;20.55;18.15;;;15.90;99.90;;;;;;5037118;28;20044;-81
2023/06/11 03:10:38;;;;;;;25.55;21.88;;;15.90;99.90;;;;;;5025900;28;20387;-82
2023/06/11 03:13:04;;;;;;;26.15;22.10;;;15.90;99.90;;;;;;5023288;28;20052;-82
2023/06/11 03:15:30;;;;;;;28.70;23.35;;;15.80;99.90;;;;;;5041125;28;20025;-82
2023/06/11 03:17:55;;;;;;;30.55;23.23;;;15.80;99.90;;;;;;5019263;28;20453;-82
2023/06/11 03:20:21;;;;;;;26.80;22.67;;;15.80;99.90;;;;;;5026733;28;20061;-81
2023/06/11 03:22:47;;;;;;;28.88;22.63;;;15.80;99.90;;;;;;5039190;28;20029;-82
2023/06/11 03:25:12;;;;;;;25.77;21.45;;;15.80;99.90;;;;;;5033280;28;20057;-82
2023/06/11 03:27:38;;;;;;;27.17;20.88;;;15.70;99.90;;;;;;5028017;28;20032;-82
2023/06/11 03:30:05;;;;;;;24.05;20.63;;;15.70;99.90;;;;;;5036275;28;20079;-82
2023/06/11 03:32:31;;;;;;;27.17;21.05;;;15.70;99.90;;;;;;5044695;28;20495;-82
2023/06/11 03:34:56;;;;;;;25.00;20.33;;;15.60;99.90;;;;;;5044732;28;20025;-85
2023/06/11 03:37:22;;;;;;;23.55;20.75;;;15.60;99.90;;;;;;5041847;28;20475;-82
2023/06/11 03:39:48;;;;;;;24.10;20.77;;;15.60;99.90;;;;;;5039061;28;20021;-82
2023/06/11 03:42:13;;;;;;;23.42;19.92;;;15.70;99.90;;;;;;5037686;28;20500;-83
2023/06/11 03:44:39;;;;;;;27.40;21.42;;;15.70;99.90;;;;;;5049463;28;20800;-82
2023/06/11 03:47:05;;;;;;;24.88;20.77;;;15.70;99.90;;;;;;5031965;28;20128;-83
2023/06/11 03:49:30;;;;;;;23.88;20.67;;;15.70;99.90;;;;;;5023282;28;20045;-82
2023/06/11 03:51:56;;;;;;;23.67;20.50;;;15.80;99.90;;;;;;5049254;28;20246;-81
2023/06/11 03:54:22;;;;;;;28.27;21.27;;;15.80;99.90;;;;;;5027830;28;20049;-81
2023/06/11 03:56:48;;;;;;;28.15;20.08;;;15.80;99.90;;;;;;5028439;28;20108;-81
2023/06/11 03:59:13;;;;;;;24.42;19.52;;;15.80;99.90;;;;;;5028249;28;20132;-83
2023/06/11 04:01:40;;;;;;;23.10;18.98;;;15.80;99.90;;;;;;5034205;28;20069;-82
2023/06/11 04:04:06;;;;;;;23.90;18.85;;;15.80;99.90;;;;;;5046162;28;20032;-81
2023/06/11 04:06:38;;;;;;;23.63;17.83;;;15.80;99.90;;;;;;5045834;28;20083;-82
2023/06/11 04:09:05;;;;;;;21.65;16.70;;;15.90;99.90;;;;;;5039119;28;20508;-82
2023/06/11 04:11:30;;;;;;;21.58;16.98;;;15.90;99.90;;;;;;5026508;28;20033;-82
2023/06/11 04:13:56;;;;;;;20.17;16.50;;;15.90;99.90;;;;;;5027035;28;20391;-83
2023/06/11 04:16:22;;;;;;;20.80;16.80;;;15.90;99.90;;;;;;5025766;28;20048;-82
2023/06/11 04:18:47;;;;;;;20.25;17.02;;;16.00;99.90;;;;;;5033143;28;20483;-83
2023/06/11 04:21:14;;;;;;;22.70;17.42;;;16.00;99.90;;;;;;5027854;28;20476;-82
2023/06/11 04:23:40;;;;;;;20.42;15.95;;;16.00;99.90;;;;;;5029796;28;20029;-81
2023/06/11 04:26:07;;;;;;;20.58;16.95;;;16.00;99.90;;;;;;5029953;28;20421;-82
2023/06/11 04:28:35;;;;;;;21.08;16.13;;;16.10;99.90;;;;;;5021554;28;20041;-82
2023/06/11 04:31:06;;;;;;;18.73;16.02;;;16.10;99.90;;;;;;5030646;28;20077;-82
2023/06/11 04:33:36;;;;;;;;;;;16.20;99.90;;;;;;5033370;28;20155;-83
2023/06/11 04:36:07;;;;;;;22.40;15.95;;;16.20;99.90;;;;;;5047967;28;19909;-82
2023/06/11 04:38:34;;;;;;;17.83;14.80;;;16.30;99.90;;;;;;5026727;28;20045;-81
2023/06/11 04:41:00;;;;;;;22.15;15.60;;;16.30;99.90;;;;;;5026021;28;20499;-81
2023/06/11 04:43:26;;;;;;;21.50;15.35;;;16.40;99.90;;;;;;5020798;28;20041;-83
2023/06/11 04:45:57;;;;;;;18.65;14.13;;;16.40;99.90;;;;;;5029335;28;20620;-82
2023/06/11 04:48:27;;;;;;;17.25;13.88;;;16.50;99.90;;;;;;5040788;28;20032;-83
2023/06/11 04:50:54;;;;;;;18.48;13.70;;;16.50;99.90;;;;;;5019490;28;20037;-82
2023/06/11 04:53:24;;;;;;;18.60;13.43;;;16.60;99.90;;;;;;5040592;28;20563;-82
2023/06/11 04:55:51;;;;;;;17.08;13.02;;;16.60;99.90;;;;;;5033429;28;20051;-81
2023/06/11 04:58:20;;;;;;;17.45;13.30;;;16.60;99.90;;;;;;5029720;28;20054;-82
2023/06/11 05:00:47;;;;;;;17.33;14.07;;;16.70;99.90;;;;;;5017221;28;20627;-82
2023/06/11 05:03:12;;;;;;;16.80;14.07;;;16.70;99.90;;;;;;5019067;28;20052;-81
2023/06/11 05:05:38;;;;;;;17.52;14.98;;;16.80;99.90;;;;;;5029725;28;20064;-84
2023/06/11 05:08:04;;;;;;;17.90;16.00;;;16.80;99.90;;;;;;5047380;28;20041;-82
2023/06/11 05:10:29;;;;;;;24.90;17.20;;;16.90;99.90;;;;;;5028476;28;20029;-85
2023/06/11 05:12:55;;;;;;;23.10;16.75;;;17.00;99.90;;;;;;5048032;28;20031;-84
2023/06/11 05:15:21;;;;;;;21.38;16.50;;;17.00;99.90;;;;;;5029071;28;20028;-84
2023/06/11 05:17:46;;;;;;;18.13;15.20;;;17.10;99.90;;;;;;5029048;28;20485;-83
2023/06/11 05:20:12;;;;;;;18.98;15.35;;;17.10;99.90;;;;;;5028138;28;20021;-81
2023/06/11 05:22:39;;;;;;;19.25;15.32;;;17.30;99.90;;;;;;5030246;28;20033;-81
2023/06/11 05:25:05;;;;;;;17.10;14.82;;;17.50;99.90;;;;;;5046878;28;20036;-81
2023/06/11 05:27:31;;;;;;;16.92;14.45;;;17.60;99.90;;;;;;5045999;28;20028;-81
2023/06/11 05:29:57;;;;;;;18.92;14.20;;;17.80;99.90;;;;;;5026271;28;20025;-83
2023/06/11 05:32:22;;;;;;;22.75;15.45;;;18.00;99.90;;;;;;5041944;28;20033;-81
2023/06/11 05:34:51;;;;;;;20.00;15.00;;;18.30;99.90;;;;;;5037975;28;20074;-82
2023/06/11 05:37:17;;;;;;;16.00;13.65;;;18.50;99.90;;;;;;5038903;28;20041;-82
2023/06/11 05:39:42;;;;;;;18.02;13.90;;;18.90;99.90;;;;;;5009856;28;20112;-82
2023/06/11 05:42:08;;;;;;;13.93;12.43;;;19.30;99.90;;;;;;5024897;28;20145;-82
2023/06/11 05:44:34;;;;;;;17.25;13.25;;;19.60;99.90;;;;;;5025863;28;20560;-81
2023/06/11 05:47:00;;;;;;;17.98;13.48;;;20.00;99.90;;;;;;5008873;28;20091;-82
2023/06/11 05:49:26;;;;;;;13.55;12.18;;;20.30;99.90;;;;;;5015553;28;20051;-81
2023/06/11 05:51:52;;;;;;;13.55;12.20;;;20.50;99.90;;;;;;5028034;28;20638;-82
2023/06/11 05:54:17;;;;;;;15.10;12.80;;;20.70;99.90;;;;;;5028582;28;20021;-81
2023/06/11 05:56:44;;;;;;;19.33;17.27;;;20.90;99.90;;;;;;5046373;28;20029;-81
2023/06/11 05:59:10;;;;;;;19.52;16.35;;;21.00;99.90;;;;;;5028079;28;20040;-82
2023/06/11 06:01:36;;;;;;;19.50;15.43;;;21.10;99.90;;;;;;5025991;28;20111;-82
2023/06/11 06:04:03;;;;;;;18.88;15.13;;;21.20;99.90;;;;;;5027446;28;20032;-82
2023/06/11 06:06:30;;;;;;;15.18;13.55;;;21.30;99.90;;;;;;5027541;28;20140;-82
2023/06/11 06:08:55;;;;;;;16.35;13.93;;;21.30;99.90;;;;;;5046291;28;20458;-82
2023/06/11 06:11:21;;;;;;;18.50;14.52;;;21.40;99.90;;;;;;5018481;28;20117;-81
2023/06/11 06:13:47;;;;;;;18.15;13.05;;;21.50;99.90;;;;;;5046278;28;20033;-81
2023/06/11 06:16:13;;;;;;;20.83;15.68;;;21.50;99.90;;;;;;5048818;28;20431;-82
2023/06/11 06:18:39;;;;;;;94.30;60.58;;;21.70;99.90;;;;;;5035186;28;20473;-82
2023/06/11 06:21:05;;;;;;;31.17;22.60;;;21.90;99.90;;;;;;5024898;28;20033;-81
2023/06/11 06:23:31;;;;;;;16.92;12.25;;;22.10;99.90;;;;;;5021374;28;20028;-82
2023/06/11 06:25:57;;;;;;;14.00;12.55;;;22.30;99.90;;;;;;5020931;28;20098;-82
2023/06/11 06:28:22;;;;;;;13.50;10.95;;;22.60;99.80;;;;;;5022828;28;20863;-81
2023/06/11 06:30:49;;;;;;;15.93;13.40;;;22.80;99.40;;;;;;5019898;28;20032;-82
2023/06/11 06:33:14;;;;;;;17.10;12.50;;;22.90;99.60;;;;;;5025937;28;20025;-82
2023/06/11 06:35:40;;;;;;;17.15;13.70;;;22.90;99.60;;;;;;5022090;28;20135;-82
2023/06/11 06:38:05;;;;;;;15.32;12.55;;;22.80;98.00;;;;;;5019890;28;20118;-81
2023/06/11 06:40:31;;;;;;;14.07;10.43;;;22.70;98.80;;;;;;5031581;28;20029;-82
2023/06/11 06:42:57;;;;;;;17.38;11.52;;;22.70;99.30;;;;;;5014973;28;20120;-82
2023/06/11 06:45:22;;;;;;;17.88;13.80;;;22.80;99.90;;;;;;5020139;28;20378;-81
2023/06/11 06:47:48;;;;;;;14.70;13.20;;;22.90;99.20;;;;;;5033772;28;20036;-82
2023/06/11 06:50:13;;;;;;;17.42;13.45;;;22.90;98.50;;;;;;5011436;28;20032;-81
2023/06/11 06:52:39;;;;;;;13.10;11.63;;;23.10;98.30;;;;;;5015681;28;20117;-81
2023/06/11 06:55:05;;;;;;;16.27;11.93;;;23.30;98.60;;;;;;5015802;28;20024;-82
2023/06/11 06:57:31;;;;;;;15.85;12.90;;;23.60;98.80;;;;;;5026760;28;20047;-82
2023/06/11 06:59:56;;;;;;;17.23;12.27;;;23.90;98.60;;;;;;5045174;28;20025;-82
2023/06/11 07:02:22;;;;;;;14.10;11.55;;;24.20;96.90;;;;;;5044673;28;20154;-82
2023/06/11 07:04:48;;;;;;;13.52;11.38;;;24.50;96.00;;;;;;5044972;28;20370;-82
2023/06/11 07:07:14;;;;;;;12.45;10.65;;;24.80;95.00;;;;;;5037068;28;20052;-82
2023/06/11 07:09:40;;;;;;;14.52;10.57;;;25.00;92.90;;;;;;5007411;28;20156;-82
2023/06/11 07:12:06;;;;;;;14.65;9.90;;;25.20;92.00;;;;;;5038013;28;20101;-83
2023/06/11 07:14:32;;;;;;;11.05;8.90;;;25.60;93.50;;;;;;5028335;28;20087;-83
2023/06/11 07:16:57;;;;;;;14.25;10.07;;;25.80;92.70;;;;;;5024991;28;20365;-80
2023/06/11 07:19:23;;;;;;;12.35;9.73;;;26.10;91.80;;;;;;5011912;28;20056;-81
2023/06/11 07:21:48;;;;;;;13.27;9.07;;;26.20;91.60;;;;;;5035577;28;20060;-82
2023/06/11 07:24:14;;;;;;;13.02;9.45;;;26.40;91.50;;;;;;5014289;28;20040;-83
2023/06/11 07:26:40;;;;;;;13.65;8.45;;;26.60;91.10;;;;;;5014666;28;20036;-82
2023/06/11 07:29:06;;;;;;;12.38;9.00;;;26.80;91.50;;;;;;5042282;28;20021;-83
2023/06/11 07:31:31;;;;;;;10.45;7.90;;;26.90;89.30;;;;;;5035034;28;20047;-83
2023/06/11 07:33:57;;;;;;;13.38;9.20;;;26.80;90.80;;;;;;5029937;28;20436;-83
2023/06/11 07:36:23;;;;;;;11.80;8.57;;;26.80;91.00;;;;;;5029268;28;20037;-83
2023/06/11 07:38:48;;;;;;;10.07;8.63;;;26.70;90.90;;;;;;5011595;28;21049;-82
2023/06/11 07:41:14;;;;;;;12.95;8.82;;;26.70;92.20;;;;;;5008957;28;20029;-82
2023/06/11 07:43:39;;;;;;;13.00;8.13;;;26.90;92.20;;;;;;5024862;28;20037;-82
2023/06/11 07:46:05;;;;;;;10.88;7.95;;;27.00;91.40;;;;;;5023220;28;20052;-83
2023/06/11 07:48:31;;;;;;;12.32;7.60;;;27.50;91.30;;;;;;5027837;28;20053;-83
2023/06/11 07:50:57;;;;;;;13.63;8.63;;;27.80;89.10;;;;;;5044255;28;20082;-84
2023/06/11 07:53:23;;;;;;;8.30;6.85;;;27.90;89.90;;;;;;5044507;28;20090;-82
2023/06/11 07:55:54;;;;;;;13.70;7.50;;;27.80;87.50;;;;;;5045110;28;20136;-84
2023/06/11 07:58:19;;;;;;;14.23;8.32;;;27.90;88.00;;;;;;5047730;28;20151;-82
2023/06/11 08:00:45;;;;;;;14.18;7.82;;;28.00;88.20;;;;;;5028085;28;20021;-82
2023/06/11 08:03:11;;;;;;;15.88;7.68;;;27.90;88.00;;;;;;5045329;28;20475;-83
2023/06/11 08:05:37;;;;;;;9.80;7.30;;;28.00;88.10;;;;;;5030085;28;20033;-81
2023/06/11 08:08:02;;;;;;;13.23;7.70;;;28.10;85.40;;;;;;5023614;28;20294;-82
2023/06/11 08:10:28;;;;;;;14.40;8.20;;;28.80;86.00;;;;;;5045091;28;20579;-83
2023/06/11 08:12:54;;;;;;;11.68;7.75;;;29.90;79.00;;;;;;5041083;28;20102;-81
2023/06/11 08:15:19;;;;;;;10.27;7.18;;;30.30;77.70;;;;;;5033403;28;20021;-82
2023/06/11 08:17:45;;;;;;;9.65;7.13;;;30.50;76.20;;;;;;5028015;28;20175;-82
2023/06/11 08:20:11;;;;;;;7.93;6.60;;;30.20;74.50;;;;;;5016313;28;20638;-82
2023/06/11 08:22:37;;;;;;;11.15;7.35;;;29.60;76.60;;;;;;5047436;28;20112;-81
2023/06/11 08:25:03;;;;;;;12.95;7.78;;;29.20;79.40;;;;;;5028225;28;20602;-80
2023/06/11 08:27:28;;;;;;;10.82;7.97;;;28.80;80.00;;;;;;5042341;28;20029;-82
2023/06/11 08:29:54;;;;;;;10.38;7.25;;;28.50;79.60;;;;;;5021730;28;20485;-81
2023/06/11 08:32:19;;;;;;;10.07;7.55;;;28.10;81.90;;;;;;5037134;28;20539;-81
2023/06/11 08:34:45;;;;;;;13.90;8.77;;;27.90;84.30;;;;;;5028722;28;20036;-80
2023/06/11 08:37:11;;;;;;;14.38;8.90;;;27.80;85.40;;;;;;5018335;28;20048;-80
2023/06/11 08:39:36;;;;;;;12.95;11.07;;;27.70;84.30;;;;;;5038615;28;20032;-80
2023/06/11 08:42:02;;;;;;;14.25;10.65;;;27.60;83.10;;;;;;5016238;28;20087;-80
2023/06/11 08:44:27;;;;;;;10.55;7.88;;;27.70;82.80;;;;;;5038007;28;20061;-80
2023/06/11 08:46:56;;;;;;;12.57;9.68;;;27.70;85.20;;;;;;5036651;28;20033;-80
2023/06/11 08:49:22;;;;;;;14.30;9.43;;;27.90;86.60;;;;;;5039911;28;20605;-81
2023/06/11 08:51:49;;;;;;;14.52;7.80;;;28.00;83.60;;;;;;5040724;28;20053;-81
2023/06/11 08:54:16;;;;;;;9.93;7.35;;;27.80;86.60;;;;;;5018562;28;20064;-80
2023/06/11 08:56:42;;;;;;;12.52;8.80;;;27.80;87.30;;;;;;5041179;28;20029;-80
2023/06/11 08:59:08;;;;;;;9.70;7.65;;;27.90;87.80;;;;;;5037325;28;20044;-80
2023/06/11 09:01:34;;;;;;;11.07;7.22;;;28.00;88.40;;;;;;5041661;28;20123;-80
2023/06/11 09:04:00;;;;;;;9.77;7.85;;;28.10;87.80;;;;;;5038930;28;20492;-80
2023/06/11 09:06:27;;;;;;;10.90;7.50;;;28.10;87.90;;;;;;5041895;28;20029;-80
2023/06/11 09:08:58;;;;;;;10.20;7.63;;;28.10;87.60;;;;;;5042433;28;20028;-81
2023/06/11 09:11:30;;;;;;;10.18;7.57;;;28.20;87.90;;;;;;5044009;28;20819;-78
2023/06/11 09:13:56;;;;;;;11.27;6.95;;;28.50;87.10;;;;;;5026307;28;20895;-80
2023/06/11 09:16:21;;;;;;;11.15;8.50;;;28.90;87.70;;;;;;5040745;28;20140;-81
2023/06/11 09:18:47;;;;;;;11.73;8.15;;;29.20;79.80;;;;;;5019609;28;20057;-81
2023/06/11 09:21:13;;;;;;;11.65;7.90;;;29.90;75.80;;;;;;5031491;28;20029;-80
2023/06/11 09:23:39;;;;;;;14.70;7.47;;;31.00;75.30;;;;;;5024174;28;20485;-80
2023/06/11 09:26:05;;;;;;;11.32;7.10;;;31.40;77.40;;;;;;5036977;28;20074;-80
2023/06/11 09:28:32;;;;;;;11.45;6.68;;;31.60;74.80;;;;;;5020824;28;20029;-80
2023/06/11 09:30:59;;;;;;;11.30;6.93;;;31.90;74.40;;;;;;5037377;28;20030;-81
2023/06/11 09:33:26;;;;;;;11.73;7.85;;;32.20;69.50;;;;;;5040481;28;20049;-80
2023/06/11 09:35:52;;;;;;;10.57;6.97;;;32.20;69.60;;;;;;5036236;28;20115;-80
2023/06/11 09:38:19;;;;;;;10.88;7.10;;;32.10;70.50;;;;;;5030328;28;20492;-81
2023/06/11 09:40:50;;;;;;;10.77;7.28;;;32.00;72.00;;;;;;5025416;28;20120;-80
2023/06/11 09:43:18;;;;;;;9.02;7.32;;;32.10;69.00;;;;;;5036869;28;20029;-80
2023/06/11 09:45:44;;;;;;;8.68;6.13;;;32.40;70.60;;;;;;5025745;28;20443;-82
2023/06/11 09:48:14;;;;;;;11.70;6.35;;;32.60;71.00;;;;;;5026349;28;20037;-80
2023/06/11 09:50:41;;;;;;;8.77;7.03;;;32.90;71.50;;;;;;5031696;28;20676;-81
2023/06/11 09:53:10;;;;;;;10.85;6.40;;;33.60;67.30;;;;;;5032603;28;20072;-82
2023/06/11 09:55:37;;;;;;;10.23;7.20;;;34.40;66.40;;;;;;5039146;28;20038;-81
2023/06/11 09:58:03;;;;;;;10.85;6.90;;;34.80;64.90;;;;;;5019258;28;20136;-80
2023/06/11 10:00:29;;;;;;;8.80;5.85;;;35.20;62.60;;;;;;5020031;28;20560;-81
2023/06/11 10:02:54;;;;;;;7.72;5.75;;;35.50;62.20;;;;;;5037717;28;20154;-81
2023/06/11 10:05:20;;;;;;;8.65;5.80;;;36.00;63.60;;;;;;5020656;28;21926;-81
2023/06/11 10:07:55;;;;;;;9.32;6.38;;;37.80;58.30;;;;;;5025942;28;20056;-81
2023/06/11 10:10:23;;;;;;;10.55;6.70;;;39.30;54.40;;;;;;5021187;28;20029;-80
2023/06/11 10:12:52;;;;;;;9.30;6.28;;;41.10;50.60;;;;;;5035557;28;20021;-81
2023/06/11 10:15:22;;;;;;;6.95;5.72;;;42.20;46.30;;;;;;5033664;28;20485;-80
2023/06/11 10:17:50;;;;;;;5.85;5.03;;;44.00;39.80;;;;;;5031430;28;20205;-81
2023/06/11 10:20:35;;;;;;;9.68;5.90;;;44.80;38.20;;;;;;5049262;28;20028;-80
2023/06/11 10:23:11;;;;;;;9.32;6.07;;;44.10;37.10;;;;;;5038030;28;22297;-79
2023/06/11 10:25:40;;;;;;;9.18;5.43;;;44.80;34.00;;;;;;5039470;28;20675;-81
2023/06/11 10:28:07;;;;;;;8.98;5.88;;;45.50;35.20;;;;;;5033746;28;20022;-82
2023/06/11 10:30:33;;;;;;;7.45;5.28;;;45.70;33.20;;;;;;5038501;28;20557;-80
2023/06/11 10:32:59;;;;;;;10.27;5.43;;;46.30;33.70;;;;;;5031676;28;20025;-79
2023/06/11 10:35:28;;;;;;;8.93;4.97;;;46.30;32.10;;;;;;5015535;28;20131;-81
2023/06/11 10:38:06;;;;;;;7.93;4.80;;;46.40;32.20;;;;;;5034087;28;20486;-81
2023/06/11 10:40:35;;;;;;;8.13;5.90;;;46.90;33.40;;;;;;5014662;28;20764;-82
2023/06/11 10:43:04;;;;;;;6.22;5.15;;;47.40;30.10;;;;;;5033385;28;20045;-82
2023/06/11 10:45:38;;;;;;;12.35;5.28;;;47.80;31.30;;;;;;5032233;28;20116;-81
2023/06/11 10:48:04;;;;;;;9.68;4.68;;;48.20;31.70;;;;;;5036546;28;20025;-80
2023/06/11 10:50:31;;;;;;;8.32;5.40;;;48.20;30.70;;;;;;5027744;28;20041;-80
2023/06/11 10:53:09;;;;;;;10.35;5.57;;;48.50;30.30;;;;;;5015993;28;20385;-80
2023/06/11 10:55:35;;;;;;;5.85;4.70;;;48.20;29.90;;;;;;5050103;28;20029;-80
2023/06/11 10:58:02;;;;;;;9.40;5.20;;;48.30;30.80;;;;;;5021473;28;20055;-81
2023/06/11 11:00:32;;;;;;;7.28;5.10;;;48.30;29.20;;;;;;5034643;28;20033;-81
2023/06/11 11:03:05;;;;;;;6.57;5.10;;;48.30;30.00;;;;;;5039372;28;20037;-80
2023/06/11 11:05:31;;;;;;;8.85;5.47;;;48.30;30.00;;;;;;5030984;28;20032;-80
2023/06/11 11:08:00;;;;;;;6.07;5.47;;;47.90;28.80;;;;;;5029908;28;20033;-79
2023/06/11 11:10:27;;;;;;;7.53;5.13;;;47.60;29.60;;;;;;5030360;28;20032;-80
2023/06/11 11:12:54;;;;;;;6.18;4.82;;;47.30;30.60;;;;;;5032284;28;20033;-81
2023/06/11 11:15:20;;;;;;;8.50;5.20;;;47.70;31.70;;;;;;5018140;28;20147;-80
2023/06/11 11:17:46;;;;;;;8.05;5.07;;;47.90;30.00;;;;;;5040726;28;20424;-80
2023/06/11 11:20:19;;;;;;;6.57;5.10;;;47.30;29.10;;;;;;5029345;28;20033;-80
2023/06/11 11:22:56;;;;;;;9.23;5.32;;;47.00;30.10;;;;;;5036772;28;20111;-80
2023/06/11 11:25:24;;;;;;;9.30;5.35;;;46.50;29.40;;;;;;5021471;28;20041;-80
2023/06/11 11:27:50;;;;;;;10.52;5.95;;;45.60;30.00;;;;;;5032585;28;20037;-80
2023/06/11 11:30:17;;;;;;;9.65;5.65;;;44.40;32.90;;;;;;5036645;28;20025;-79
2023/06/11 11:32:43;;;;;;;7.63;5.50;;;42.90;34.80;;;;;;5036756;28;20040;-80
2023/06/11 11:35:11;;;;;;;7.80;5.70;;;41.70;36.30;;;;;;5055014;28;20032;-79
2023/06/11 11:37:37;;;;;;;7.32;5.57;;;40.20;36.50;;;;;;5044825;28;20083;-80
2023/06/11 11:40:06;;;;;;;9.38;5.70;;;39.40;38.30;;;;;;5037892;28;20092;-82
2023/06/11 11:42:53;;;;;;;7.85;5.63;;;38.90;41.90;;;;;;5042133;28;20036;-79
2023/06/11 11:45:20;;;;;;;6.97;5.85;;;38.40;39.00;;;;;;5030327;28;20040;-81
2023/06/11 11:47:51;;;;;;;9.60;5.50;;;37.80;41.40;;;;;;5016197;28;20025;-80
2023/06/11 11:50:21;;;;;;;6.38;5.60;;;37.40;42.20;;;;;;5014507;28;20319;-81
2023/06/11 11:53:02;;;;;;;8.98;5.70;;;36.80;38.80;;;;;;5018984;28;20021;-79
2023/06/11 11:55:28;;;;;;;9.38;5.45;;;36.40;41.10;;;;;;5020300;28;20045;-80
2023/06/11 11:58:14;;;;;;;9.00;5.45;;;36.60;45.90;;;;;;5006530;28;20132;-81
2023/06/11 12:01:09;;;;;;;8.55;5.70;;;36.80;47.00;;;;;;5008431;28;20497;-81
2023/06/11 12:03:36;;;;;;;8.10;5.07;;;36.90;42.60;;;;;;5010261;28;20128;-80
2023/06/11 12:06:08;;;;;;;6.82;5.60;;;36.80;40.60;;;;;;5012927;28;20047;-80
2023/06/11 12:08:36;;;;;;;6.97;5.63;;;36.80;40.40;;;;;;5018526;28;20093;-80
2023/06/11 12:11:06;;;;;;;8.93;5.45;;;36.70;40.40;;;;;;5008239;28;20044;-81
2023/06/11 12:13:31;;;;;;;10.38;5.80;;;36.70;44.70;;;;;;5012344;28;20125;-79
2023/06/11 12:15:57;;;;;;;6.38;5.32;;;36.40;40.70;;;;;;4996046;28;20203;-80
2023/06/11 12:18:23;;;;;;;6.15;5.15;;;36.00;41.20;;;;;;5009794;28;20084;-80
2023/06/11 12:20:48;;;;;;;6.43;5.32;;;36.10;43.40;;;;;;5002954;28;20034;-80
2023/06/11 12:23:14;;;;;;;7.22;5.45;;;35.90;40.80;;;;;;5009903;28;20084;-82
2023/06/11 12:25:40;;;;;;;7.13;5.50;;;36.00;42.90;;;;;;5005371;28;20033;-80
2023/06/11 12:28:05;;;;;;;7.00;5.65;;;35.80;40.40;;;;;;5011670;28;20087;-79
2023/06/11 12:30:33;;;;;;;7.60;5.53;;;35.90;41.20;;;;;;5017066;28;20033;-79
2023/06/11 12:32:59;;;;;;;6.28;5.15;;;35.80;41.00;;;;;;5014332;28;20034;-81